Dorval, Canada
Current Conditions -  °F | °C
As of 8:00 PM on Saturday 25 Oct 2014 (Local Time) from CYUL Reporting Station
Overcast Overcast  
Wind Chill: 54°   Ceiling: 2800
Heat Index: 54°   Visibility: 15mi
Dew Point: 50°   Wind: 13mph
Humidity: 88%   Direction: 220°SW
Pressure: 29.44"   Gusts: 20mph
Location:  45.45°N, 73.75°W
Report Text: CYUL 260000Z 22011G17KT 15SM BKN028 OVC050 12/10 A2944 RMK SC5SC3 SLP969 DENSITY ALT 300FT
Loading
Personal Weather Stations






























Interactive Weather Map
Tropical Storm Tracking
New forecast layout! Learn more

10-Day Weather Forecast

Advertisements
Track Severe Weather on mobile